Time,TemperatureF,DewpointF,PressureIn,WindDirection,WindDirectionDegrees,WindSpeedMPH,WindSpeedGustMPH,Humidity,HourlyPrecipIn,Conditions,Clouds,dailyrainin,SoftwareType,DateUTC
2013-01-02 00:09:00,30.8,26.8,30.17,NNE,32,4.0,4.0,85,0.00,,,0.02,Wunderground v.1.15,2013-01-02 06:09:00,
2013-01-02 00:19:00,30.6,26.6,30.17,North,11,3.0,5.0,85,0.00,,,0.02,Wunderground v.1.15,2013-01-02 06:19:00,
2013-01-02 00:29:00,30.5,26.8,30.17,NE,34,3.0,7.0,86,0.00,,,0.02,Wunderground v.1.15,2013-01-02 06:29:00,
2013-01-02 00:39:00,30.4,26.7,30.17,North,360,4.0,4.0,86,0.00,,,0.02,Wunderground v.1.15,2013-01-02 06:39:00,
2013-01-02 00:50:00,30.3,26.6,30.17,NNW,336,4.0,5.0,86,0.00,,,0.02,Wunderground v.1.15,2013-01-02 06:50:00,
2013-01-02 00:59:00,30.2,26.5,30.17,NNE,16,4.0,5.0,86,0.00,,,0.02,Wunderground v.1.15,2013-01-02 06:59:00,
2013-01-02 01:09:00,30.1,26.4,30.17,NNW,333,2.0,9.0,86,0.00,,,0.02,Wunderground v.1.15,2013-01-02 07:09:00,
2013-01-02 01:19:00,29.9,26.2,30.17,North,350,4.0,6.0,86,0.00,,,0.02,Wunderground v.1.15,2013-01-02 07:19:00,
2013-01-02 01:29:00,29.8,26.1,30.17,NNE,22,3.0,8.0,86,0.00,,,0.02,Wunderground v.1.15,2013-01-02 07:29:00,
2013-01-02 01:39:00,29.8,26.1,30.18,North,360,5.0,7.0,86,0.00,,,0.02,Wunderground v.1.15,2013-01-02 07:39:00,
2013-01-02 01:49:00,29.8,26.4,30.18,NNE,28,3.0,3.0,87,0.00,,,0.02,Wunderground v.1.15,2013-01-02 07:49:00,
2013-01-02 01:59:00,29.7,26.3,30.18,NNW,333,4.0,4.0,87,0.00,,,0.02,Wunderground v.1.15,2013-01-02 07:59:00,
2013-01-02 02:09:00,29.7,26.3,30.19,NW,306,4.0,5.0,87,0.00,,,0.02,Wunderground v.1.15,2013-01-02 08:09:00,
2013-01-02 02:19:00,29.6,26.2,30.19,NE,36,4.0,7.0,87,0.00,,,0.02,Wunderground v.1.15,2013-01-02 08:19:00,
2013-01-02 02:29:00,29.5,25.8,30.19,North,360,6.0,6.0,86,0.00,,,0.02,Wunderground v.1.15,2013-01-02 08:29:00,
2013-01-02 02:39:00,29.4,25.7,30.19,NNE,26,5.0,6.0,86,0.00,,,0.02,Wunderground v.1.15,2013-01-02 08:39:00,
2013-01-02 02:49:00,29.4,25.7,30.19,NE,36,5.0,10.0,86,0.00,,,0.02,Wunderground v.1.15,2013-01-02 08:49:00,
2013-01-02 02:59:00,29.2,25.5,30.19,NE,40,7.0,12.0,86,0.00,,,0.02,Wunderground v.1.15,2013-01-02 08:59:00,
2013-01-02 03:09:00,29.2,25.5,30.20,NNE,30,5.0,6.0,86,0.00,,,0.02,Wunderground v.1.15,2013-01-02 09:09:00,
2013-01-02 03:19:00,29.1,25.4,30.20,NE,51,4.0,6.0,86,0.00,,,0.02,Wunderground v.1.15,2013-01-02 09:19:00,
2013-01-02 03:29:00,29.0,25.3,30.18,NE,53,5.0,6.0,86,0.00,,,0.02,Wunderground v.1.15,2013-01-02 09:29:00,
2013-01-02 03:39:00,28.9,25.2,30.20,NE,34,5.0,5.0,86,0.00,,,0.02,Wunderground v.1.15,2013-01-02 09:39:00,
2013-01-02 03:49:00,28.8,25.1,30.20,NE,42,5.0,5.0,86,0.00,,,0.02,Wunderground v.1.15,2013-01-02 09:49:00,
2013-01-02 03:59:00,28.7,26.7,30.20,NNE,27,4.0,4.0,92,0.00,,,0.02,Wunderground v.1.15,2013-01-02 09:59:00,
2013-01-02 04:09:00,28.5,24.6,30.20,NNW,333,4.0,5.0,85,0.00,,,0.02,Wunderground v.1.15,2013-01-02 10:09:00,
2013-01-02 04:19:00,28.3,24.4,30.20,North,5,4.0,5.0,85,0.00,,,0.02,Wunderground v.1.15,2013-01-02 10:19:00,
2013-01-02 04:29:00,28.2,24.6,30.20,North,5,3.0,3.0,86,0.00,,,0.02,Wunderground v.1.15,2013-01-02 10:29:00,
2013-01-02 04:39:00,28.0,26.0,30.20,NNW,341,2.0,5.0,92,0.00,,,0.02,Wunderground v.1.15,2013-01-02 10:39:00,
2013-01-02 04:49:00,27.9,24.3,30.20,North,5,4.0,4.0,86,0.00,,,0.02,Wunderground v.1.15,2013-01-02 10:49:00,
2013-01-02 04:59:00,27.8,24.2,30.22,NW,325,5.0,5.0,86,0.00,,,0.02,Wunderground v.1.15,2013-01-02 10:59:00,
2013-01-02 05:09:00,27.8,24.2,30.22,North,5,3.0,3.0,86,0.00,,,0.02,Wunderground v.1.15,2013-01-02 11:09:00,
2013-01-02 05:19:00,27.8,24.2,30.22,North,5,4.0,4.0,86,0.00,,,0.02,Wunderground v.1.15,2013-01-02 11:19:00,
2013-01-02 05:29:00,27.7,24.1,30.21,NE,35,5.0,5.0,86,0.00,,,0.02,Wunderground v.1.15,2013-01-02 11:29:00,
2013-01-02 05:39:00,27.7,24.1,30.22,NNW,331,3.0,4.0,86,0.00,,,0.02,Wunderground v.1.15,2013-01-02 11:39:00,
2013-01-02 05:49:00,27.6,24.0,30.22,NNE,23,4.0,4.0,86,0.00,,,0.02,Wunderground v.1.15,2013-01-02 11:49:00,
2013-01-02 05:59:00,27.5,23.9,30.21,NNW,337,4.0,4.0,86,0.00,,,0.02,Wunderground v.1.15,2013-01-02 11:59:00,
2013-01-02 06:09:00,27.3,23.7,30.22,NNE,30,4.0,5.0,86,0.00,,,0.02,Wunderground v.1.15,2013-01-02 12:09:00,
2013-01-02 06:19:00,27.2,23.6,30.22,NNE,16,3.0,4.0,86,0.00,,,0.02,Wunderground v.1.15,2013-01-02 12:19:00,
2013-01-02 06:29:00,27.2,23.6,30.22,NE,40,2.0,2.0,86,0.00,,,0.02,Wunderground v.1.15,2013-01-02 12:29:00,
2013-01-02 06:39:00,27.1,23.5,30.22,NNE,28,3.0,4.0,86,0.00,,,0.02,Wunderground v.1.15,2013-01-02 12:39:00,
2013-01-02 06:49:00,27.0,23.4,30.22,NNE,28,5.0,5.0,86,0.00,,,0.02,Wunderground v.1.15,2013-01-02 12:49:00,
2013-01-02 06:59:00,26.9,23.5,30.22,NNW,338,4.0,4.0,87,0.00,,,0.02,Wunderground v.1.15,2013-01-02 12:59:00,
2013-01-02 07:09:00,26.7,23.4,30.23,NNW,342,2.0,5.0,87,0.00,,,0.02,Wunderground v.1.15,2013-01-02 13:09:00,
2013-01-02 07:19:00,26.9,23.5,30.23,North,10,3.0,4.0,87,0.00,,,0.02,Wunderground v.1.15,2013-01-02 13:19:00,
2013-01-02 07:29:00,26.9,23.3,30.24,NNE,25,3.0,6.0,86,0.00,,,0.02,Wunderground v.1.15,2013-01-02 13:29:00,
2013-01-02 07:39:00,26.9,23.5,30.23,NE,42,4.0,8.0,87,0.00,,,0.02,Wunderground v.1.15,2013-01-02 13:39:00,
2013-01-02 07:49:00,27.1,23.5,30.23,NE,44,5.0,6.0,86,0.00,,,0.02,Wunderground v.1.15,2013-01-02 13:49:00,
2013-01-02 07:59:00,27.4,23.8,30.24,North,360,4.0,7.0,86,0.00,,,0.02,Wunderground v.1.15,2013-01-02 13:59:00,
2013-01-02 08:09:00,27.2,23.3,30.23,NNE,24,5.0,7.0,85,0.00,,,0.02,Wunderground v.1.15,2013-01-02 14:09:00,
2013-01-02 08:19:00,27.3,23.4,30.23,NE,45,5.0,5.0,85,0.00,,,0.02,Wunderground v.1.15,2013-01-02 14:19:00,
2013-01-02 08:29:00,27.8,23.6,30.24,NNE,24,4.0,6.0,84,0.00,,,0.02,Wunderground v.1.15,2013-01-02 14:29:00,
2013-01-02 08:39:00,27.7,23.5,30.25,North,355,4.0,4.0,84,0.00,,,0.02,Wunderground v.1.15,2013-01-02 14:39:00,
2013-01-02 08:49:00,27.7,23.2,30.25,NE,44,4.0,4.0,83,0.00,,,0.02,Wunderground v.1.15,2013-01-02 14:49:00,
2013-01-02 08:59:00,27.6,22.8,30.25,North,11,4.0,4.0,82,0.00,,,0.02,Wunderground v.1.15,2013-01-02 14:59:00,
2013-01-02 09:09:00,28.1,23.3,30.25,ENE,59,4.0,4.0,82,0.00,,,0.02,Wunderground v.1.15,2013-01-02 15:09:00,
2013-01-02 09:19:00,28.4,23.3,30.25,North,11,5.0,5.0,81,0.00,,,0.02,Wunderground v.1.15,2013-01-02 15:19:00,
2013-01-02 09:29:00,28.5,23.4,30.25,NW,319,4.0,4.0,81,0.00,,,0.02,Wunderground v.1.15,2013-01-02 15:29:00,
2013-01-02 09:39:00,28.6,23.2,30.26,NNW,331,4.0,4.0,80,0.00,,,0.02,Wunderground v.1.15,2013-01-02 15:39:00,
2013-01-02 09:49:00,29.0,23.6,30.26,NNE,22,4.0,4.0,80,0.00,,,0.02,Wunderground v.1.15,2013-01-02 15:49:00,
2013-01-02 09:59:00,29.2,23.5,30.26,NE,34,4.0,5.0,79,0.00,,,0.02,Wunderground v.1.15,2013-01-02 15:59:00,
2013-01-02 10:09:00,29.5,23.8,30.27,NE,34,2.0,4.0,79,0.00,,,0.02,Wunderground v.1.15,2013-01-02 16:09:00,
2013-01-02 10:19:00,29.3,23.6,30.27,NNW,340,4.0,4.0,79,0.00,,,0.02,Wunderground v.1.15,2013-01-02 16:19:00,
2013-01-02 10:29:00,29.7,24.0,30.26,NE,34,3.0,4.0,79,0.00,,,0.02,Wunderground v.1.15,2013-01-02 16:29:00,
2013-01-02 10:39:00,30.3,24.3,30.25,NNW,328,3.0,4.0,78,0.00,,,0.02,Wunderground v.1.15,2013-01-02 16:39:00,
2013-01-02 10:49:00,30.6,24.6,30.25,NNW,337,2.0,3.0,78,0.00,,,0.02,Wunderground v.1.15,2013-01-02 16:49:00,
2013-01-02 10:59:00,31.2,24.8,30.24,NE,41,2.0,2.0,77,0.00,,,0.02,Wunderground v.1.15,2013-01-02 16:59:00,
2013-01-02 11:09:00,31.2,24.2,30.25,NE,50,2.0,2.0,75,0.00,,,0.02,Wunderground v.1.15,2013-01-02 17:09:00,
2013-01-02 11:19:00,32.3,24.9,30.25,NE,42,2.0,5.0,74,0.00,,,0.02,Wunderground v.1.15,2013-01-02 17:19:00,
2013-01-02 11:29:00,31.7,23.7,30.25,NNE,22,5.0,5.0,72,0.00,,,0.02,Wunderground v.1.15,2013-01-02 17:29:00,
2013-01-02 11:39:00,31.9,23.6,30.24,NE,42,2.0,2.0,71,0.00,,,0.02,Wunderground v.1.15,2013-01-02 17:39:00,
2013-01-02 11:49:00,32.1,23.4,30.24,ENE,62,2.0,5.0,70,0.00,,,0.02,Wunderground v.1.15,2013-01-02 17:49:00,
2013-01-02 11:59:00,33.3,25.2,30.23,North,5,2.0,2.0,72,0.00,,,0.02,Wunderground v.1.15,2013-01-02 17:59:00,
2013-01-02 12:09:00,33.3,24.6,30.22,NE,35,2.0,8.0,70,0.00,,,0.02,Wunderground v.1.15,2013-01-02 18:09:00,
2013-01-02 12:19:00,33.2,24.1,30.22,NNE,28,4.0,4.0,69,0.00,,,0.02,Wunderground v.1.15,2013-01-02 18:19:00,
2013-01-02 12:29:00,33.4,24.7,30.20,NNE,26,3.0,4.0,70,0.00,,,0.02,Wunderground v.1.15,2013-01-02 18:29:00,
2013-01-02 12:39:00,33.0,24.3,30.20,NE,46,3.0,3.0,70,0.00,,,0.02,Wunderground v.1.15,2013-01-02 18:39:00,
2013-01-02 12:49:00,33.2,24.8,30.20,NE,49,4.0,5.0,71,0.00,,,0.02,Wunderground v.1.15,2013-01-02 18:49:00,
2013-01-02 12:59:00,33.5,24.8,30.18,NNW,344,4.0,4.0,70,0.00,,,0.02,Wunderground v.1.15,2013-01-02 18:59:00,
2013-01-02 13:09:00,34.2,25.4,30.18,NE,48,1.0,2.0,70,0.00,,,0.02,Wunderground v.1.15,2013-01-02 19:09:00,
2013-01-02 13:19:00,34.4,25.6,30.18,NNW,343,3.0,3.0,70,0.00,,,0.02,Wunderground v.1.15,2013-01-02 19:19:00,
2013-01-02 13:29:00,33.9,24.8,30.17,NNE,28,5.0,5.0,69,0.00,,,0.02,Wunderground v.1.15,2013-01-02 19:29:00,
2013-01-02 13:39:00,34.4,25.6,30.18,NW,325,3.0,3.0,70,0.00,,,0.02,Wunderground v.1.15,2013-01-02 19:39:00,
2013-01-02 13:49:00,34.4,25.6,30.18,North,360,1.0,3.0,70,0.00,,,0.02,Wunderground v.1.15,2013-01-02 19:49:00,
2013-01-02 13:59:00,34.7,25.6,30.17,NNW,336,2.0,2.0,69,0.00,,,0.02,Wunderground v.1.15,2013-01-02 19:59:00,
2013-01-02 14:09:00,35.2,26.0,30.18,North,349,1.0,4.0,69,0.00,,,0.03,Wunderground v.1.15,2013-01-02 20:09:00,
2013-01-02 14:19:00,34.7,25.2,30.18,NNE,28,3.0,3.0,68,0.00,,,0.03,Wunderground v.1.15,2013-01-02 20:19:00,
2013-01-02 14:29:00,34.7,24.9,30.18,NNE,28,0.0,0.0,67,0.00,,,0.03,Wunderground v.1.15,2013-01-02 20:29:00,
2013-01-02 14:39:00,35.0,25.5,30.19,NNE,28,0.0,0.0,68,0.00,,,0.03,Wunderground v.1.15,2013-01-02 20:39:00,
2013-01-02 14:49:00,35.7,25.4,30.19,NNE,28,0.0,0.0,66,0.00,,,0.03,Wunderground v.1.15,2013-01-02 20:49:00,
2013-01-02 14:59:00,36.0,25.7,30.18,NNE,28,0.0,0.0,66,0.00,,,0.04,Wunderground v.1.15,2013-01-02 20:59:00,
2013-01-02 15:09:00,35.9,25.3,30.18,NNE,28,0.0,0.0,65,0.00,,,0.04,Wunderground v.1.15,2013-01-02 21:09:00,
2013-01-02 15:19:00,35.8,25.2,30.18,NNE,28,0.0,0.0,65,0.00,,,0.04,Wunderground v.1.15,2013-01-02 21:19:00,
2013-01-02 15:29:00,35.6,25.0,30.19,NNE,28,0.0,0.0,65,0.00,,,0.04,Wunderground v.1.15,2013-01-02 21:29:00,
2013-01-02 15:39:00,35.6,24.6,30.19,NW,319,0.0,0.0,64,0.00,,,0.04,Wunderground v.1.15,2013-01-02 21:39:00,
2013-01-02 15:49:00,35.3,24.0,30.19,North,349,1.0,1.0,63,0.00,,,0.04,Wunderground v.1.15,2013-01-02 21:49:00,
2013-01-02 15:59:00,35.3,23.6,30.20,NW,311,2.0,2.0,62,0.00,,,0.04,Wunderground v.1.15,2013-01-02 21:59:00,
2013-01-02 16:09:00,35.1,23.8,30.20,NW,325,1.0,2.0,63,0.00,,,0.04,Wunderground v.1.15,2013-01-02 22:09:00,
2013-01-02 16:19:00,35.0,23.7,30.20,NNW,336,2.0,2.0,63,0.00,,,0.04,Wunderground v.1.15,2013-01-02 22:19:00,
2013-01-02 16:29:00,34.8,24.2,30.20,NW,323,2.0,5.0,65,0.00,,,0.04,Wunderground v.1.15,2013-01-02 22:29:00,
2013-01-02 16:39:00,34.5,24.3,30.21,NNW,333,1.0,1.0,66,0.00,,,0.04,Wunderground v.1.15,2013-01-02 22:39:00,
2013-01-02 16:49:00,34.4,24.6,30.21,NW,311,1.0,4.0,67,0.00,,,0.04,Wunderground v.1.15,2013-01-02 22:49:00,
2013-01-02 16:59:00,34.1,24.3,30.20,NW,314,2.0,2.0,67,0.00,,,0.04,Wunderground v.1.15,2013-01-02 22:59:00,
2013-01-02 17:09:00,33.8,24.4,30.21,NW,312,2.0,2.0,68,0.00,,,0.04,Wunderground v.1.15,2013-01-02 23:09:00,
2013-01-02 17:19:00,33.4,24.3,30.21,WNW,285,4.0,4.0,69,0.00,,,0.04,Wunderground v.1.15,2013-01-02 23:19:00,
2013-01-02 17:34:00,33.0,24.3,30.22,NW,326,1.0,2.0,70,0.00,,,0.00,Wunderground v.1.15,2013-01-02 23:34:00,
2013-01-02 17:39:00,33.0,24.3,30.22,NW,321,2.0,3.0,70,0.00,,,0.00,Wunderground v.1.15,2013-01-02 23:39:00,
2013-01-02 17:49:00,32.8,24.1,30.22,NW,321,2.0,5.0,70,0.00,,,0.00,Wunderground v.1.15,2013-01-02 23:49:00,
2013-01-02 17:59:00,32.6,24.2,30.22,WNW,288,1.0,1.0,71,0.00,,,0.00,Wunderground v.1.15,2013-01-02 23:59:00,
2013-01-02 18:09:00,32.5,24.1,30.22,WNW,296,1.0,4.0,71,0.00,,,0.00,Wunderground v.1.15,2013-01-03 00:09:00,
2013-01-02 18:19:00,32.4,24.0,30.22,NW,311,2.0,2.0,71,0.00,,,0.00,Wunderground v.1.15,2013-01-03 00:19:00,
2013-01-02 18:29:00,32.3,23.9,30.22,NW,313,0.0,4.0,71,0.00,,,0.00,Wunderground v.1.15,2013-01-03 00:29:00,
2013-01-02 18:39:00,32.2,23.8,30.23,NNW,332,1.0,1.0,71,0.00,,,0.00,Wunderground v.1.15,2013-01-03 00:39:00,
2013-01-02 18:49:00,32.1,24.1,30.23,NNW,346,1.0,1.0,72,0.00,,,0.00,Wunderground v.1.15,2013-01-03 00:49:00,
2013-01-02 18:59:00,32.1,24.1,30.23,NNW,346,1.0,1.0,72,0.00,,,0.00,Wunderground v.1.15,2013-01-03 00:59:00,
2013-01-02 19:09:00,32.0,24.0,30.23,NNW,330,1.0,1.0,72,0.00,,,0.00,Wunderground v.1.15,2013-01-03 01:09:00,
2013-01-02 19:19:00,32.0,24.0,30.23,NNW,331,0.0,0.0,72,0.00,,,0.00,Wunderground v.1.15,2013-01-03 01:19:00,
2013-01-02 19:29:00,32.0,23.0,30.24,North,355,0.0,1.0,69,0.00,,,0.00,Wunderground v.1.15,2013-01-03 01:29:00,
2013-01-02 19:39:00,31.9,22.9,30.24,North,355,0.0,0.0,69,0.00,,,0.00,Wunderground v.1.15,2013-01-03 01:39:00,
2013-01-02 19:49:00,31.8,22.8,30.24,North,355,0.0,0.0,69,0.00,,,0.00,Wunderground v.1.15,2013-01-03 01:49:00,
2013-01-02 20:04:00,31.6,22.9,30.23,North,355,0.0,0.0,70,0.00,,,0.00,Wunderground v.1.15,2013-01-03 02:04:00,
2013-01-02 20:09:00,31.7,23.0,30.22,North,355,0.0,0.0,70,0.00,,,0.00,Wunderground v.1.15,2013-01-03 02:09:00,
2013-01-02 20:19:00,31.7,23.0,30.22,North,355,0.0,0.0,70,0.00,,,0.00,Wunderground v.1.15,2013-01-03 02:19:00,
2013-01-02 20:29:00,31.4,22.7,30.23,North,355,0.0,0.0,70,0.00,,,0.00,Wunderground v.1.15,2013-01-03 02:29:00,
2013-01-02 20:39:00,31.2,22.9,30.24,North,355,0.0,0.0,71,0.00,,,0.00,Wunderground v.1.15,2013-01-03 02:39:00,
2013-01-02 20:49:00,31.1,22.8,30.24,North,355,0.0,0.0,71,0.00,,,0.00,Wunderground v.1.15,2013-01-03 02:49:00,
2013-01-02 21:04:00,30.8,22.8,30.24,North,355,0.0,0.0,72,0.00,,,0.00,Wunderground v.1.15,2013-01-03 03:04:00,
2013-01-02 21:09:00,30.7,23.1,30.24,North,355,0.0,0.0,73,0.00,,,0.00,Wunderground v.1.15,2013-01-03 03:09:00,
2013-01-02 21:19:00,30.6,23.0,30.24,North,355,0.0,0.0,73,0.00,,,0.00,Wunderground v.1.15,2013-01-03 03:19:00,
2013-01-02 21:39:00,30.5,23.2,30.25,North,355,0.0,0.0,74,0.00,,,0.00,Wunderground v.1.15,2013-01-03 03:39:00,
2013-01-02 21:49:00,30.4,23.4,30.25,North,355,0.0,0.0,75,0.00,,,0.00,Wunderground v.1.15,2013-01-03 03:49:00,
2013-01-02 21:59:00,30.3,23.3,30.25,North,355,0.0,0.0,75,0.00,,,0.00,Wunderground v.1.15,2013-01-03 03:59:00,
2013-01-02 22:09:00,30.2,23.2,30.25,North,355,0.0,0.0,75,0.00,,,0.00,Wunderground v.1.15,2013-01-03 04:09:00,
2013-01-02 22:19:00,30.1,23.1,30.25,North,355,0.0,0.0,75,0.00,,,0.00,Wunderground v.1.15,2013-01-03 04:19:00,
2013-01-02 22:29:00,30.1,23.1,30.25,North,355,0.0,0.0,75,0.00,,,0.00,Wunderground v.1.15,2013-01-03 04:29:00,
2013-01-02 22:39:00,30.0,23.4,30.25,North,355,0.0,0.0,76,0.00,,,0.00,Wunderground v.1.15,2013-01-03 04:39:00,
2013-01-02 22:49:00,30.1,23.4,30.25,North,355,0.0,0.0,76,0.00,,,0.00,Wunderground v.1.15,2013-01-03 04:49:00,
2013-01-02 22:59:00,30.2,23.5,30.25,North,355,0.0,0.0,76,0.00,,,0.00,Wunderground v.1.15,2013-01-03 04:59:00,
2013-01-02 23:04:00,30.1,23.4,30.25,North,355,0.0,0.0,76,0.00,,,0.00,Wunderground v.1.15,2013-01-03 05:04:00,
2013-01-02 23:09:00,30.1,23.4,30.25,North,355,0.0,0.0,76,0.00,,,0.00,Wunderground v.1.15,2013-01-03 05:09:00,
2013-01-02 23:19:00,30.1,23.8,30.25,North,355,0.0,0.0,77,0.00,,,0.00,Wunderground v.1.15,2013-01-03 05:19:00,
2013-01-02 23:24:00,30.1,23.4,30.25,North,355,0.0,0.0,76,0.00,,,0.00,Wunderground v.1.15,2013-01-03 05:24:00,
2013-01-02 23:29:00,30.2,23.5,30.25,North,355,0.0,0.0,76,0.00,,,0.00,Wunderground v.1.15,2013-01-03 05:29:00,
2013-01-02 23:39:00,30.2,23.5,30.25,North,355,0.0,0.0,76,0.00,,,0.00,Wunderground v.1.15,2013-01-03 05:39:00,
2013-01-02 23:49:00,30.1,23.4,30.25,North,355,0.0,0.0,76,0.00,,,0.00,Wunderground v.1.15,2013-01-03 05:49:00,
2013-01-02 23:54:00,30.1,23.8,30.24,North,355,0.0,0.0,77,0.00,,,0.00,Wunderground v.1.15,2013-01-03 05:54:00,
2013-01-02 23:59:00,30.0,23.7,30.24,North,355,0.0,0.0,77,0.00,,,0.00,Wunderground v.1.15,2013-01-03 05:59:00,